createdAt,value
2018-06-24T00:05:42.745Z,5.10
2018-06-24T00:11:31.090Z,5.10
2018-06-24T00:42:09.534Z,4.50
2018-06-24T01:40:02.502Z,3.40
2018-06-24T02:08:04.665Z,3.00
2018-06-24T02:18:37.145Z,2.80
2018-06-24T02:30:55.589Z,2.60
2018-06-24T02:33:28.107Z,2.60
2018-06-24T02:36:22.574Z,2.60
2018-06-24T03:08:06.618Z,3.10
2018-06-24T03:31:45.080Z,4.00
2018-06-24T03:39:15.727Z,7.20
2018-06-24T03:41:50.167Z,8.80
2018-06-24T03:44:18.747Z,9.60
2018-06-24T03:46:46.655Z,11.30
2018-06-24T03:49:18.735Z,13.00
2018-06-24T03:51:46.351Z,14.20
2018-06-24T03:54:14.958Z,15.30
2018-06-24T03:56:42.395Z,15.90
2018-06-24T03:59:09.820Z,16.80
2018-06-24T04:01:37.321Z,17.60
2018-06-24T04:06:44.870Z,15.20
2018-06-24T04:09:30.004Z,14.50
2018-06-24T04:12:12.628Z,14.60
2018-06-24T04:14:43.093Z,15.30
2018-06-24T04:17:11.414Z,15.30
2018-06-24T04:19:40.056Z,15.00
2018-06-24T04:24:35.281Z,17.20
2018-06-24T04:27:02.749Z,19.20
2018-06-24T04:29:30.185Z,20.40
2018-06-24T04:31:57.597Z,21.30
2018-06-24T04:34:25.086Z,21.80
2018-06-24T04:36:52.496Z,21.40
2018-06-24T04:39:19.913Z,21.60
2018-06-24T04:41:47.309Z,22.80
2018-06-24T04:44:14.721Z,22.00
2018-06-24T04:46:42.121Z,20.00
2018-06-24T04:49:09.537Z,18.80
2018-06-24T04:51:36.978Z,18.20
2018-06-24T04:54:04.446Z,18.00
2018-06-24T04:56:31.880Z,18.80
2018-06-24T04:58:59.303Z,21.10
2018-06-24T05:01:26.695Z,22.50
2018-06-24T05:03:54.122Z,24.10
2018-06-24T05:06:21.558Z,24.90
2018-06-24T05:08:48.980Z,24.80
2018-06-24T05:14:19.106Z,22.00
2018-06-24T05:16:46.545Z,21.30
2018-06-24T05:19:14.010Z,21.50
2018-06-24T05:21:41.401Z,21.60
2018-06-24T05:24:16.077Z,21.60
2018-06-24T05:26:43.462Z,21.50
2018-06-24T05:29:11.437Z,22.10
2018-06-24T05:31:38.865Z,21.10
2018-06-24T05:34:06.474Z,21.10
2018-06-24T05:36:33.934Z,21.60
2018-06-24T05:39:01.325Z,21.60
2018-06-24T05:41:28.787Z,22.60
2018-06-24T05:43:56.229Z,23.00
2018-06-24T05:46:23.648Z,22.50
2018-06-24T05:48:51.091Z,22.80
2018-06-24T05:51:18.581Z,23.40
2018-06-24T05:53:46.022Z,22.70
2018-06-24T05:56:13.437Z,22.50
2018-06-24T06:01:08.266Z,22.60
2018-06-24T06:06:11.557Z,21.50
2018-06-24T06:32:19.119Z,20.50
2018-06-24T07:01:33.423Z,20.30
2018-06-24T07:04:00.856Z,21.40
2018-06-24T07:06:28.318Z,20.60
2018-06-24T07:08:55.757Z,20.40
2018-06-24T07:11:23.184Z,19.90
2018-06-24T07:13:50.645Z,20.00
2018-06-24T07:16:18.076Z,19.50
2018-06-24T07:21:12.907Z,19.50
2018-06-24T07:26:07.748Z,19.20
2018-06-24T07:28:35.152Z,18.90
2018-06-24T07:31:02.609Z,18.80
2018-06-24T07:33:30.141Z,19.20
2018-06-24T07:38:24.892Z,20.10
2018-06-24T07:40:52.328Z,20.20
2018-06-24T07:43:19.715Z,20.40
2018-06-24T07:45:47.206Z,20.60
2018-06-24T07:48:14.593Z,20.60
2018-06-24T07:53:09.401Z,20.70
2018-06-24T07:55:36.834Z,20.70
2018-06-24T07:58:04.291Z,21.00
2018-06-24T08:00:31.994Z,20.90
2018-06-24T08:02:59.402Z,20.60
2018-06-24T08:05:26.788Z,20.60
2018-06-24T08:07:54.255Z,20.20
2018-06-24T08:10:21.669Z,20.30
2018-06-24T08:12:49.086Z,20.50
2018-06-24T08:15:16.532Z,20.60
2018-06-24T08:17:43.954Z,20.00
2018-06-24T08:20:11.386Z,19.80
2018-06-24T08:22:38.836Z,19.60
2018-06-24T08:25:06.270Z,19.70
2018-06-24T08:27:33.689Z,19.80
2018-06-24T08:30:01.112Z,19.90
2018-06-24T08:32:28.574Z,19.70
2018-06-24T08:34:56.021Z,19.80
2018-06-24T08:37:23.468Z,20.00
2018-06-24T08:39:50.929Z,19.80
2018-06-24T08:42:18.332Z,19.70
2018-06-24T08:44:45.757Z,19.80
2018-06-24T08:47:13.209Z,20.00
2018-06-24T08:49:40.570Z,20.20
2018-06-24T08:52:08.021Z,20.70
2018-06-24T08:54:35.413Z,21.00
2018-06-24T08:57:02.838Z,21.50
2018-06-24T08:59:30.229Z,21.40
2018-06-24T09:01:57.652Z,21.40
2018-06-24T09:04:25.056Z,21.60
2018-06-24T09:06:52.458Z,22.00
2018-06-24T09:09:19.886Z,21.90
2018-06-24T09:11:47.279Z,22.10
2018-06-24T09:14:14.741Z,21.80
2018-06-24T09:16:42.145Z,21.60
2018-06-24T09:19:09.574Z,21.50
2018-06-24T09:21:37.009Z,21.60
2018-06-24T09:24:04.464Z,21.70
2018-06-24T09:26:31.882Z,21.80
2018-06-24T09:28:59.413Z,21.90
2018-06-24T09:31:26.839Z,21.30
2018-06-24T09:33:54.297Z,21.40
2018-06-24T09:36:21.719Z,21.50
2018-06-24T09:38:49.108Z,21.30
2018-06-24T09:41:16.568Z,21.30
2018-06-24T09:43:43.983Z,21.00
2018-06-24T09:46:11.430Z,21.00
2018-06-24T09:48:38.829Z,20.90
2018-06-24T09:51:06.302Z,20.70
2018-06-24T09:53:33.763Z,20.70
2018-06-24T09:56:01.184Z,20.60
2018-06-24T09:58:28.599Z,20.70
2018-06-24T10:00:55.999Z,20.70
2018-06-24T10:03:23.472Z,20.60
2018-06-24T10:05:50.909Z,20.40
2018-06-24T10:10:45.725Z,20.20
2018-06-24T10:13:13.165Z,20.20
2018-06-24T10:15:40.597Z,20.10
2018-06-24T10:18:08.090Z,20.20
2018-06-24T10:20:35.515Z,20.30
2018-06-24T10:23:02.951Z,20.50
2018-06-24T10:25:30.373Z,20.60
2018-06-24T10:30:25.213Z,20.60
2018-06-24T10:32:52.629Z,20.60
2018-06-24T10:35:20.035Z,20.70
2018-06-24T10:40:14.829Z,20.60
2018-06-24T10:42:42.252Z,20.50
2018-06-24T10:45:09.676Z,20.50
2018-06-24T10:47:37.083Z,20.70
2018-06-24T10:50:04.546Z,20.80
2018-06-24T10:52:31.961Z,20.90
2018-06-24T10:54:59.372Z,21.00
2018-06-24T10:57:26.794Z,21.00
2018-06-24T10:59:54.215Z,21.10
2018-06-24T11:02:21.638Z,21.20
2018-06-24T11:04:49.077Z,21.00
2018-06-24T11:07:16.461Z,21.20
2018-06-24T11:09:43.919Z,21.40
2018-06-24T11:12:11.341Z,21.40
2018-06-24T11:14:38.754Z,21.40
2018-06-24T11:17:06.177Z,21.40
2018-06-24T11:19:33.628Z,21.30
2018-06-24T11:24:28.453Z,21.40
2018-06-24T11:26:55.862Z,21.50
2018-06-24T11:29:23.315Z,21.40
2018-06-24T11:31:50.813Z,21.50
2018-06-24T11:34:18.195Z,21.60
2018-06-24T11:36:45.641Z,21.80
2018-06-24T11:39:13.076Z,21.70
2018-06-24T11:41:40.505Z,21.70
2018-06-24T11:44:07.960Z,21.80
2018-06-24T11:46:35.377Z,21.70
2018-06-24T11:49:02.798Z,21.80
2018-06-24T11:51:30.258Z,21.90
2018-06-24T11:53:57.684Z,21.90
2018-06-24T11:56:25.073Z,21.70
2018-06-24T11:58:52.480Z,21.70
2018-06-24T12:01:19.908Z,21.50
2018-06-24T12:03:47.345Z,21.50
2018-06-24T12:06:14.772Z,21.70
2018-06-24T12:08:42.223Z,21.90
2018-06-24T12:11:09.705Z,22.20
2018-06-24T12:13:37.171Z,22.40
2018-06-24T12:16:04.844Z,22.60
2018-06-24T12:18:32.661Z,22.80
2018-06-24T12:21:00.091Z,22.90
2018-06-24T12:23:27.545Z,23.00
2018-06-24T12:25:54.996Z,22.80
2018-06-24T12:28:22.445Z,22.90
2018-06-24T12:30:49.919Z,23.00
2018-06-24T12:33:17.329Z,22.80
2018-06-24T12:35:44.801Z,22.90
2018-06-24T12:38:12.234Z,23.00
2018-06-24T12:40:39.669Z,23.00
2018-06-24T12:43:07.107Z,23.10
2018-06-24T12:45:34.576Z,23.40
2018-06-24T12:48:02.012Z,23.60
2018-06-24T12:50:29.465Z,23.40
2018-06-24T12:52:57.408Z,23.40
2018-06-24T12:55:24.978Z,23.50
2018-06-24T13:15:48.459Z,23.40
2018-06-24T14:14:43.680Z,23.20
2018-06-24T15:39:56.733Z,21.50
2018-06-24T15:56:42.063Z,21.30
2018-06-24T16:10:43.461Z,20.60
2018-06-24T16:13:11.310Z,20.40
2018-06-24T16:18:16.182Z,19.80
2018-06-24T16:20:44.038Z,19.30
2018-06-24T16:23:11.325Z,18.20
2018-06-24T16:28:07.079Z,16.90
2018-06-24T16:30:34.599Z,16.50
2018-06-24T16:33:02.099Z,16.20
2018-06-24T16:39:07.309Z,15.90
2018-06-24T16:41:35.217Z,15.80
2018-06-24T16:44:04.380Z,15.40
2018-06-24T16:46:51.690Z,15.50
2018-06-24T16:56:01.046Z,15.60
2018-06-24T16:58:28.864Z,15.40
2018-06-24T17:01:11.927Z,15.60
2018-06-24T17:03:40.742Z,15.80
2018-06-24T17:06:11.177Z,15.80
2018-06-24T17:08:38.859Z,15.90
2018-06-24T17:11:06.623Z,16.00
2018-06-24T17:19:23.281Z,15.80
2018-06-24T17:21:50.870Z,15.70
2018-06-24T17:24:18.320Z,15.60
2018-06-24T17:26:45.776Z,15.40
2018-06-24T17:29:13.512Z,15.30
2018-06-24T17:36:40.360Z,15.10
2018-06-24T17:39:14.842Z,15.00
2018-06-24T17:41:45.001Z,14.90
2018-06-24T17:44:34.247Z,14.90
2018-06-24T17:51:14.853Z,14.70
2018-06-24T17:53:42.385Z,14.50
2018-06-24T17:56:11.889Z,14.50
2018-06-24T17:58:49.841Z,14.40
2018-06-24T18:01:17.504Z,14.40
2018-06-24T18:03:44.938Z,14.40
2018-06-24T18:09:05.170Z,14.40
2018-06-24T18:11:32.600Z,14.50
2018-06-24T18:19:51.712Z,14.50
2018-06-24T18:22:20.331Z,14.50
2018-06-24T18:24:48.505Z,14.50
2018-06-24T18:27:21.529Z,14.60
2018-06-24T18:29:52.006Z,14.60
2018-06-24T18:35:12.376Z,14.70
2018-06-24T18:37:43.965Z,14.80
2018-06-24T18:40:15.602Z,14.90
2018-06-24T18:42:44.286Z,14.80
2018-06-24T18:47:43.991Z,14.80
2018-06-24T18:50:12.584Z,14.90
2018-06-24T18:52:41.989Z,14.90
2018-06-24T18:55:11.922Z,14.90
2018-06-24T18:57:40.927Z,15.00
2018-06-24T19:00:12.178Z,15.00
2018-06-24T19:02:51.531Z,15.00
2018-06-24T19:07:27.957Z,15.00
2018-06-24T19:09:57.946Z,15.20
2018-06-24T19:13:04.155Z,15.20
2018-06-24T19:15:32.966Z,15.20
2018-06-24T19:18:08.939Z,15.20
2018-06-24T19:21:48.074Z,15.30
2018-06-24T19:24:25.968Z,15.30
2018-06-24T19:26:54.042Z,15.30
2018-06-24T19:29:22.194Z,15.30
2018-06-24T19:31:57.548Z,15.40
2018-06-24T19:34:33.231Z,15.30
2018-06-24T19:37:13.104Z,15.20
2018-06-24T19:43:11.528Z,15.00
2018-06-24T19:50:32.003Z,14.60
2018-06-24T19:56:45.466Z,14.00
2018-06-24T19:59:15.602Z,13.60
2018-06-24T20:01:44.322Z,13.40
2018-06-24T20:04:14.305Z,13.30
2018-06-24T20:06:45.100Z,13.20
2018-06-24T20:12:23.220Z,13.10
2018-06-24T20:15:42.763Z,13.00
2018-06-24T20:18:21.832Z,12.90
2018-06-24T20:24:02.139Z,12.80
2018-06-24T20:26:53.897Z,12.70
2018-06-24T20:29:21.425Z,12.60
2018-06-24T20:31:48.909Z,12.60
2018-06-24T20:34:16.714Z,12.70
2018-06-24T20:36:44.380Z,12.70
2018-06-24T20:39:13.133Z,12.60
2018-06-24T20:41:40.836Z,12.50
2018-06-24T20:44:08.337Z,12.50
2018-06-24T20:46:35.970Z,12.50
2018-06-24T20:49:03.414Z,12.50
2018-06-24T20:51:30.861Z,12.50
2018-06-24T20:53:58.292Z,12.50
2018-06-24T20:56:25.705Z,12.50
2018-06-24T20:59:04.569Z,12.60
2018-06-24T21:01:32.409Z,12.60
2018-06-24T21:12:18.854Z,12.60
2018-06-24T21:15:06.423Z,12.60
2018-06-24T21:28:55.815Z,12.50
2018-06-24T21:42:13.896Z,12.50
2018-06-24T21:47:47.711Z,12.30
2018-06-24T21:50:15.154Z,12.10
2018-06-24T21:52:42.650Z,12.00
2018-06-24T21:57:37.508Z,11.30
2018-06-24T22:00:07.154Z,10.90
2018-06-24T22:02:34.589Z,10.60
2018-06-24T22:05:01.989Z,10.30
2018-06-24T22:07:29.431Z,10.10
2018-06-24T22:09:56.815Z,9.90
2018-06-24T22:12:24.227Z,9.70
2018-06-24T22:14:51.708Z,9.50
2018-06-24T22:17:19.338Z,9.30
2018-06-24T22:19:47.945Z,9.20
2018-06-24T22:33:10.710Z,8.90
2018-06-24T22:52:54.623Z,8.80
2018-06-24T22:55:22.969Z,8.70
2018-06-24T22:59:39.936Z,8.70
2018-06-24T23:07:37.115Z,8.70
2018-06-24T23:10:08.414Z,8.60
2018-06-24T23:17:11.792Z,8.30
2018-06-24T23:20:05.561Z,8.20
2018-06-24T23:22:55.304Z,7.90
2018-06-24T23:35:05.976Z,7.70
2018-06-24T23:37:51.579Z,7.50
2018-06-24T23:40:22.853Z,7.40
2018-06-24T23:43:08.659Z,7.40
2018-06-24T23:45:50.288Z,7.30
2018-06-24T23:51:39.389Z,7.20
2018-06-24T23:54:13.784Z,7.20
2018-06-24T23:56:47.678Z,7.10
2018-06-24T23:59:38.166Z,7.00
